Time;durP1;ratioP1;P1;durP2;ratioP2;P2;SDS_P1;SDS_P2;PMS_P1;PMS_P2;Temp;Humidity;BMP_temperature;BMP_pressure;BME280_temperature;BME280_humidity;BME280_pressure;Samples;Min_cycle;Max_cycle;Signal;HPM_P1;HPM_P2
2021/12/09 00:01:04;;;;;;;16.13;9.77;;;1.20;99.90;;;;;;6131510;23;20433;-85
2021/12/09 00:03:35;;;;;;;19.60;10.00;;;1.20;99.90;;;;;;6179415;23;20017;-85
2021/12/09 00:06:02;;;;;;;18.00;10.18;;;1.10;99.90;;;;;;6178440;23;20021;-85
2021/12/09 00:08:29;;;;;;;22.83;10.50;;;1.20;99.90;;;;;;6179717;23;20113;-85
2021/12/09 00:10:58;;;;;;;19.75;10.43;;;1.10;99.90;;;;;;6154320;23;20053;-85
2021/12/09 00:13:26;;;;;;;21.48;10.57;;;1.20;99.90;;;;;;6130865;23;20096;-85
2021/12/09 00:15:52;;;;;;;22.70;11.20;;;1.20;99.90;;;;;;6132939;23;20024;-85
2021/12/09 00:18:18;;;;;;;19.00;11.57;;;1.20;99.90;;;;;;6181144;23;20059;-85
2021/12/09 00:20:45;;;;;;;31.67;12.00;;;1.20;99.90;;;;;;6131928;23;20104;-85
2021/12/09 00:23:11;;;;;;;23.48;12.18;;;1.20;99.90;;;;;;6155966;23;20071;-86
2021/12/09 00:25:37;;;;;;;22.23;11.45;;;1.10;99.90;;;;;;6155700;23;20083;-86
2021/12/09 00:28:04;;;;;;;28.20;12.25;;;1.20;99.90;;;;;;6131156;23;20100;-85
2021/12/09 00:30:31;;;;;;;22.98;11.82;;;1.20;99.90;;;;;;6130727;23;20013;-85
2021/12/09 00:32:58;;;;;;;25.27;12.75;;;1.20;99.90;;;;;;6130337;23;20013;-85
2021/12/09 00:35:30;;;;;;;25.80;12.25;;;1.10;99.90;;;;;;6180556;23;20075;-85
2021/12/09 00:38:01;;;;;;;19.55;12.27;;;1.10;99.90;;;;;;6131725;23;20013;-85
2021/12/09 00:40:27;;;;;;;21.23;12.32;;;1.10;99.90;;;;;;6131211;23;20035;-85
2021/12/09 00:42:53;;;;;;;20.37;12.27;;;1.20;99.90;;;;;;6128863;23;20458;-85
2021/12/09 00:45:20;;;;;;;22.73;12.20;;;1.10;99.90;;;;;;6130162;23;20361;-85
2021/12/09 00:47:46;;;;;;;27.88;12.43;;;1.10;99.90;;;;;;6155701;23;20015;-85
2021/12/09 00:50:11;;;;;;;25.27;12.60;;;1.10;99.90;;;;;;6157388;23;20438;-85
2021/12/09 00:52:37;;;;;;;21.07;11.57;;;1.10;99.90;;;;;;6130991;23;20023;-85
2021/12/09 00:55:06;;;;;;;23.93;11.97;;;1.10;99.90;;;;;;6132191;23;20092;-85
2021/12/09 00:57:32;;;;;;;21.58;11.68;;;1.10;99.90;;;;;;6180807;23;20020;-85
2021/12/09 00:59:59;;;;;;;23.40;12.53;;;1.10;99.90;;;;;;6131192;23;20394;-85
2021/12/09 01:02:25;;;;;;;23.25;12.18;;;1.10;99.90;;;;;;6179895;23;20299;-85
2021/12/09 01:04:50;;;;;;;25.37;12.67;;;1.10;99.90;;;;;;6130416;23;20021;-85
2021/12/09 01:07:16;;;;;;;24.67;12.73;;;1.10;99.90;;;;;;6180784;23;20332;-85
2021/12/09 01:09:42;;;;;;;24.57;12.43;;;1.10;99.90;;;;;;6180733;23;20244;-85
2021/12/09 01:12:09;;;;;;;27.00;12.77;;;1.10;99.90;;;;;;6131705;23;20264;-85
2021/12/09 01:14:41;;;;;;;29.83;12.60;;;1.00;99.90;;;;;;6180659;23;20048;-85
2021/12/09 01:17:10;;;;;;;22.65;12.00;;;0.90;99.90;;;;;;6157359;23;20016;-85
2021/12/09 01:19:36;;;;;;;25.92;12.15;;;1.00;99.90;;;;;;6180692;23;20505;-85
2021/12/09 01:22:02;;;;;;;24.30;12.32;;;0.90;99.90;;;;;;6155065;23;20021;-85
2021/12/09 01:24:28;;;;;;;25.45;12.90;;;0.90;99.90;;;;;;6131210;23;20040;-85
2021/12/09 01:26:56;;;;;;;25.43;13.33;;;0.90;99.90;;;;;;6156271;23;20024;-85
2021/12/09 01:29:31;;;;;;;24.35;13.32;;;0.90;99.90;;;;;;6156279;23;20450;-85
2021/12/09 01:32:01;;;;;;;29.70;14.45;;;0.90;99.90;;;;;;6132212;23;20024;-85
2021/12/09 01:34:27;;;;;;;27.92;13.80;;;0.80;99.90;;;;;;6180511;23;20330;-85
2021/12/09 01:36:52;;;;;;;27.47;13.87;;;0.80;99.90;;;;;;6180098;23;20009;-85
2021/12/09 01:39:19;;;;;;;29.40;14.10;;;0.80;99.90;;;;;;6180933;23;20015;-85
2021/12/09 01:41:45;;;;;;;27.42;14.07;;;0.80;99.90;;;;;;6155892;23;20021;-85
2021/12/09 01:44:11;;;;;;;24.55;13.70;;;0.80;99.90;;;;;;6177857;23;20040;-85
2021/12/09 01:46:36;;;;;;;28.17;15.47;;;0.80;99.90;;;;;;6155999;23;20021;-85
2021/12/09 01:49:03;;;;;;;31.83;15.03;;;0.80;99.90;;;;;;6131477;23;20024;-85
2021/12/09 01:51:29;;;;;;;28.83;14.73;;;0.80;99.90;;;;;;6179851;23;20152;-85
2021/12/09 01:53:55;;;;;;;27.95;14.45;;;0.70;99.90;;;;;;6131455;23;20023;-85
2021/12/09 01:56:24;;;;;;;31.90;14.97;;;0.80;99.90;;;;;;6155547;23;20013;-85
2021/12/09 01:59:02;;;;;;;29.02;15.90;;;0.70;99.90;;;;;;6179220;23;20099;-85
2021/12/09 02:01:30;;;;;;;24.33;14.55;;;0.70;99.90;;;;;;6179868;23;20020;-85
2021/12/09 02:03:57;;;;;;;27.00;14.98;;;0.70;99.90;;;;;;6153511;23;20016;-85
2021/12/09 02:06:24;;;;;;;33.78;16.25;;;0.60;99.90;;;;;;6130734;23;20032;-85
2021/12/09 02:08:51;;;;;;;30.73;15.63;;;0.60;99.90;;;;;;6154383;23;20017;-85
2021/12/09 02:11:17;;;;;;;29.45;15.23;;;0.60;99.90;;;;;;6178925;23;20017;-85
2021/12/09 02:13:45;;;;;;;34.20;16.50;;;0.60;99.90;;;;;;6154589;23;20013;-85
2021/12/09 02:16:11;;;;;;;26.05;14.95;;;0.70;99.90;;;;;;6177823;23;20441;-85
2021/12/09 02:18:37;;;;;;;36.05;16.52;;;0.60;99.90;;;;;;6152594;23;20044;-85
2021/12/09 02:21:17;;;;;;;33.03;16.17;;;0.60;99.90;;;;;;6153428;23;20413;-85
2021/12/09 02:23:47;;;;;;;33.60;16.58;;;0.60;99.90;;;;;;6178588;23;20472;-85
2021/12/09 02:26:15;;;;;;;33.67;18.00;;;0.50;99.90;;;;;;6178856;23;20024;-85
2021/12/09 02:28:42;;;;;;;32.08;16.83;;;0.50;99.90;;;;;;6154946;23;20025;-85
2021/12/09 02:31:09;;;;;;;38.38;17.65;;;0.50;99.90;;;;;;6178342;23;20017;-85
2021/12/09 02:33:35;;;;;;;38.50;18.80;;;0.50;99.90;;;;;;6154506;23;20488;-85
2021/12/09 02:36:01;;;;;;;31.00;18.33;;;0.60;99.90;;;;;;6154766;23;20041;-85
2021/12/09 02:38:27;;;;;;;35.73;17.13;;;0.50;99.90;;;;;;6130877;23;20048;-85
2021/12/09 02:40:55;;;;;;;34.78;18.13;;;0.50;99.90;;;;;;6156341;23;20017;-85
2021/12/09 02:43:29;;;;;;;32.17;18.65;;;0.50;99.90;;;;;;6156769;23;20298;-85
2021/12/09 02:45:56;;;;;;;36.40;18.50;;;0.60;99.90;;;;;;6181082;23;20017;-85
2021/12/09 02:48:23;;;;;;;36.05;19.08;;;0.60;99.90;;;;;;6181939;23;20016;-85
2021/12/09 02:50:50;;;;;;;40.63;19.85;;;0.60;99.90;;;;;;6158475;23;20021;-85
2021/12/09 02:53:18;;;;;;;36.30;18.90;;;0.60;99.90;;;;;;6181541;23;20024;-85
2021/12/09 02:55:44;;;;;;;32.53;18.85;;;0.60;99.90;;;;;;6156648;23;20298;-85
2021/12/09 02:58:10;;;;;;;34.83;18.15;;;0.60;99.90;;;;;;6133972;23;20790;-85
2021/12/09 03:01:00;;;;;;;40.22;19.85;;;0.60;99.90;;;;;;6156701;23;20278;-86
2021/12/09 03:03:27;;;;;;;35.92;19.02;;;0.60;99.90;;;;;;6165497;23;20013;-84
2021/12/09 03:05:58;;;;;;;44.45;19.98;;;0.60;99.90;;;;;;6158386;23;20060;-84
2021/12/09 03:08:36;;;;;;;39.75;19.33;;;0.60;99.90;;;;;;6182959;23;20013;-84
2021/12/09 03:11:11;;;;;;;40.50;19.27;;;0.60;99.90;;;;;;6183652;23;20073;-84
2021/12/09 03:13:38;;;;;;;37.97;19.27;;;0.60;99.90;;;;;;6185961;23;20067;-83
2021/12/09 03:16:04;;;;;;;35.95;18.90;;;0.60;99.90;;;;;;6184301;23;20470;-83
2021/12/09 03:18:37;;;;;;;42.55;19.50;;;0.60;99.90;;;;;;6137879;23;20009;-84
2021/12/09 03:21:02;;;;;;;45.78;19.95;;;0.60;99.90;;;;;;6159687;23;20024;-84
2021/12/09 03:23:30;;;;;;;39.33;19.27;;;0.70;99.90;;;;;;6183471;23;20013;-84
2021/12/09 03:25:56;;;;;;;37.17;19.58;;;0.50;99.90;;;;;;6134806;23;20047;-84
2021/12/09 03:28:22;;;;;;;35.77;19.30;;;0.50;99.90;;;;;;6184790;23;20454;-84
2021/12/09 03:30:47;;;;;;;37.10;19.87;;;0.50;99.90;;;;;;6159615;23;20251;-84
2021/12/09 03:33:13;;;;;;;44.27;20.20;;;0.50;99.90;;;;;;6133604;23;20064;-84
2021/12/09 03:35:39;;;;;;;38.70;19.77;;;0.50;99.90;;;;;;6132702;23;20016;-84
2021/12/09 03:38:05;;;;;;;38.63;19.63;;;0.40;99.90;;;;;;6133760;23;20017;-84
2021/12/09 03:40:30;;;;;;;38.80;20.17;;;0.40;99.90;;;;;;6183792;23;20044;-84
2021/12/09 03:42:56;;;;;;;38.73;19.60;;;0.40;99.90;;;;;;6157963;23;20240;-84
2021/12/09 03:45:22;;;;;;;39.93;20.70;;;0.30;99.90;;;;;;6134701;23;20013;-84
2021/12/09 03:47:48;;;;;;;38.57;20.57;;;0.30;99.90;;;;;;6160575;23;20013;-84
2021/12/09 03:50:17;;;;;;;45.23;21.40;;;0.30;99.90;;;;;;6134954;23;20274;-84
2021/12/09 03:52:43;;;;;;;45.85;20.95;;;0.30;99.90;;;;;;6159681;23;20017;-84
2021/12/09 03:55:09;;;;;;;37.78;21.30;;;0.40;99.90;;;;;;6179949;23;20009;-83
2021/12/09 03:57:35;;;;;;;42.95;21.50;;;0.40;99.90;;;;;;6158617;23;20021;-84
2021/12/09 04:00:05;;;;;;;42.73;21.93;;;0.40;99.90;;;;;;6131144;23;20016;-84
2021/12/09 04:02:31;;;;;;;42.72;20.35;;;0.40;99.90;;;;;;6180869;23;20021;-84
2021/12/09 04:04:57;;;;;;;45.23;21.07;;;0.30;99.90;;;;;;6156660;23;20086;-84
2021/12/09 04:07:22;;;;;;;45.67;22.50;;;0.30;99.90;;;;;;6130153;23;20024;-84
2021/12/09 04:09:48;;;;;;;40.77;21.73;;;0.30;99.90;;;;;;6130652;23;20392;-84
2021/12/09 04:12:14;;;;;;;42.57;20.37;;;0.30;99.90;;;;;;6131681;23;20013;-84
2021/12/09 04:14:40;;;;;;;44.17;21.20;;;0.20;99.90;;;;;;6135488;23;20045;-84
2021/12/09 04:17:06;;;;;;;41.70;21.63;;;0.20;99.90;;;;;;6182728;23;20024;-84
2021/12/09 04:19:32;;;;;;;41.77;20.53;;;0.20;99.90;;;;;;6131478;23;20010;-84
2021/12/09 04:21:58;;;;;;;38.67;20.43;;;0.20;99.90;;;;;;6182875;23;20016;-84
2021/12/09 04:24:23;;;;;;;44.30;20.77;;;0.20;99.90;;;;;;6136538;23;20509;-84
2021/12/09 04:26:52;;;;;;;44.03;20.30;;;0.10;99.90;;;;;;6135982;23;20179;-84
2021/12/09 04:29:19;;;;;;;43.92;21.33;;;0.10;99.90;;;;;;6159802;23;20452;-84
2021/12/09 04:31:47;;;;;;;42.60;21.48;;;0.10;99.90;;;;;;6137763;23;20076;-84
2021/12/09 04:34:14;;;;;;;45.97;21.58;;;0.10;99.90;;;;;;6141959;23;20016;-84
2021/12/09 04:36:40;;;;;;;47.83;22.58;;;0.10;99.90;;;;;;6192585;23;20017;-84
2021/12/09 04:39:07;;;;;;;47.47;21.60;;;0.10;99.90;;;;;;6189255;23;20521;-84
2021/12/09 04:41:32;;;;;;;43.17;20.90;;;0.10;99.90;;;;;;6187244;23;20052;-84
2021/12/09 04:43:59;;;;;;;49.90;22.47;;;0.10;99.90;;;;;;6140392;23;20129;-84
2021/12/09 04:46:24;;;;;;;44.60;21.17;;;0.10;99.90;;;;;;6164131;23;20483;-84
2021/12/09 04:48:50;;;;;;;48.27;22.00;;;0.10;99.90;;;;;;6167551;23;20017;-84
2021/12/09 04:51:16;;;;;;;38.77;22.23;;;0.10;99.90;;;;;;6142059;23;20402;-84
2021/12/09 04:53:42;;;;;;;48.47;22.53;;;0.10;99.90;;;;;;6142645;23;20020;-84
2021/12/09 04:56:08;;;;;;;44.60;21.87;;;0.10;99.90;;;;;;6169268;23;20068;-84
2021/12/09 04:58:33;;;;;;;43.30;21.50;;;0.10;99.90;;;;;;6143787;23;20009;-84
2021/12/09 05:01:02;;;;;;;44.23;22.00;;;0.10;99.90;;;;;;6191388;23;20039;-84
2021/12/09 05:03:27;;;;;;;44.30;22.10;;;0.10;99.90;;;;;;6187263;23;20024;-84
2021/12/09 05:05:55;;;;;;;47.50;21.63;;;0.10;99.90;;;;;;6159363;23;20346;-84
2021/12/09 05:08:23;;;;;;;46.47;21.40;;;0.10;99.90;;;;;;6184833;23;20021;-84
2021/12/09 05:13:19;;;;;;;46.03;22.23;;;0.00;99.90;;;;;;6182264;23;20233;-85
2021/12/09 05:15:45;;;;;;;44.42;22.02;;;0.10;99.90;;;;;;6131994;23;20049;-85
2021/12/09 05:18:12;;;;;;;47.85;22.35;;;0.10;99.90;;;;;;6156926;23;20048;-86
2021/12/09 05:20:39;;;;;;;45.92;22.25;;;0.00;99.90;;;;;;6156992;23;20399;-86
2021/12/09 05:23:05;;;;;;;50.25;22.45;;;0.00;99.90;;;;;;6181032;23;20043;-86
2021/12/09 05:25:31;;;;;;;42.55;21.08;;;0.00;99.90;;;;;;6132528;23;20547;-86
2021/12/09 05:27:57;;;;;;;49.15;22.33;;;0.00;99.90;;;;;;6157881;23;20009;-86
2021/12/09 05:30:26;;;;;;;42.27;21.40;;;0.10;99.90;;;;;;6155626;23;20497;-86
2021/12/09 05:32:52;;;;;;;44.15;21.52;;;0.10;99.90;;;;;;6155545;23;20066;-86
2021/12/09 05:35:18;;;;;;;43.50;21.65;;;0.10;99.90;;;;;;6180596;23;20462;-86
2021/12/09 05:37:45;;;;;;;49.78;22.55;;;0.10;99.90;;;;;;6155991;23;20024;-86
2021/12/09 05:40:12;;;;;;;40.13;20.63;;;0.10;99.90;;;;;;6180720;23;20021;-86
2021/12/09 05:42:39;;;;;;;50.60;21.95;;;0.10;99.90;;;;;;6131779;23;20017;-86
2021/12/09 05:45:05;;;;;;;41.00;21.25;;;0.10;99.90;;;;;;6155607;23;20095;-86
2021/12/09 05:47:31;;;;;;;43.95;21.35;;;0.10;99.90;;;;;;6181446;23;20024;-86
2021/12/09 05:49:57;;;;;;;47.85;21.17;;;0.10;99.90;;;;;;6130384;23;20103;-86
2021/12/09 05:52:23;;;;;;;54.47;22.70;;;0.10;99.90;;;;;;6155205;23;20072;-86
2021/12/09 05:54:49;;;;;;;49.67;22.57;;;0.10;99.90;;;;;;6157747;23;20024;-86
2021/12/09 05:57:15;;;;;;;45.27;20.60;;;0.10;99.90;;;;;;6182153;23;20402;-85
2021/12/09 05:59:42;;;;;;;45.13;21.70;;;0.20;99.90;;;;;;6180729;23;20129;-85
2021/12/09 06:02:10;;;;;;;49.13;21.70;;;0.20;99.90;;;;;;6180689;23;20380;-85
2021/12/09 06:04:37;;;;;;;45.60;20.88;;;0.20;99.90;;;;;;6182554;23;20016;-85
2021/12/09 06:07:03;;;;;;;40.38;20.80;;;0.10;99.90;;;;;;6135619;23;20031;-84
2021/12/09 06:09:29;;;;;;;43.75;21.63;;;0.20;99.90;;;;;;6134328;23;20025;-84
2021/12/09 06:11:55;;;;;;;41.37;21.10;;;0.20;99.90;;;;;;6134079;23;20024;-84
2021/12/09 06:14:20;;;;;;;43.87;21.33;;;0.20;99.90;;;;;;6133571;23;20017;-84
2021/12/09 06:16:46;;;;;;;46.80;20.30;;;0.20;99.90;;;;;;6134093;23;20048;-84
2021/12/09 06:19:12;;;;;;;38.03;19.13;;;0.20;99.90;;;;;;6133568;23;20389;-83
2021/12/09 06:21:38;;;;;;;49.83;21.42;;;0.30;99.90;;;;;;6158938;23;20017;-83
2021/12/09 06:24:04;;;;;;;39.90;20.15;;;0.20;99.90;;;;;;6184749;23;20020;-83
2021/12/09 06:26:32;;;;;;;47.83;20.87;;;0.20;99.90;;;;;;6182968;23;20358;-83
2021/12/09 06:28:58;;;;;;;46.83;21.35;;;0.30;99.90;;;;;;6181887;23;20095;-83
2021/12/09 06:31:25;;;;;;;45.22;21.23;;;0.30;99.90;;;;;;6132426;23;20429;-83
2021/12/09 06:33:51;;;;;;;40.33;20.63;;;0.30;99.90;;;;;;6133465;23;20049;-83
2021/12/09 06:36:17;;;;;;;49.95;20.63;;;0.30;99.90;;;;;;6183161;23;20013;-83
2021/12/09 06:38:43;;;;;;;39.90;19.95;;;0.20;99.90;;;;;;6133984;23;20299;-83
2021/12/09 06:41:09;;;;;;;41.65;19.40;;;0.20;99.90;;;;;;6181643;23;20576;-83
2021/12/09 06:43:37;;;;;;;42.77;19.43;;;0.20;99.90;;;;;;6132775;23;20088;-83
2021/12/09 06:46:05;;;;;;;37.17;18.35;;;0.20;99.90;;;;;;6154935;23;20248;-83
2021/12/09 06:48:31;;;;;;;40.67;19.25;;;0.20;99.90;;;;;;6181881;23;20021;-83
2021/12/09 06:50:57;;;;;;;47.58;19.77;;;0.20;99.90;;;;;;6158677;23;20012;-83
2021/12/09 06:53:23;;;;;;;46.27;20.57;;;0.20;99.90;;;;;;6182801;23;20013;-83
2021/12/09 06:55:49;;;;;;;44.57;20.67;;;0.20;99.90;;;;;;6183507;23;20020;-83
2021/12/09 06:58:14;;;;;;;45.77;21.17;;;0.20;99.90;;;;;;6134074;23;20105;-83
2021/12/09 07:00:45;;;;;;;44.10;21.10;;;0.20;99.90;;;;;;6159175;23;20017;-83
2021/12/09 07:03:11;;;;;;;42.45;20.25;;;0.20;99.90;;;;;;6135253;23;20017;-83
2021/12/09 07:05:37;;;;;;;51.03;22.27;;;0.30;99.90;;;;;;6158979;23;20017;-83
2021/12/09 07:08:04;;;;;;;43.97;21.75;;;0.20;99.90;;;;;;6134229;23;20601;-83
2021/12/09 07:10:31;;;;;;;41.85;20.60;;;0.20;99.90;;;;;;6158992;23;20013;-83
2021/12/09 07:12:57;;;;;;;43.83;19.55;;;0.20;99.90;;;;;;6158268;23;20013;-83
2021/12/09 07:15:23;;;;;;;48.73;20.30;;;0.20;99.90;;;;;;6134578;23;20021;-83
2021/12/09 07:17:49;;;;;;;42.25;20.95;;;0.20;99.90;;;;;;6134803;23;20067;-84
2021/12/09 07:20:18;;;;;;;43.70;19.45;;;0.10;99.90;;;;;;6183120;23;20104;-84
2021/12/09 07:22:46;;;;;;;40.13;19.52;;;0.10;99.90;;;;;;6183474;23;20045;-84
2021/12/09 07:25:12;;;;;;;43.90;20.30;;;0.10;99.90;;;;;;6159155;23;20015;-84
2021/12/09 07:27:38;;;;;;;42.75;19.75;;;0.10;99.90;;;;;;6159588;23;20058;-83
2021/12/09 07:30:09;;;;;;;40.67;20.23;;;0.10;99.90;;;;;;6184696;23;20438;-83
2021/12/09 07:32:35;;;;;;;40.28;19.05;;;0.10;99.90;;;;;;6135031;23;20008;-83
2021/12/09 07:35:02;;;;;;;47.55;20.90;;;0.00;99.90;;;;;;6159959;23;20049;-83
2021/12/09 07:37:28;;;;;;;44.30;20.27;;;0.00;99.90;;;;;;6185192;23;20017;-83
2021/12/09 07:39:54;;;;;;;45.70;21.33;;;0.10;99.90;;;;;;6160935;23;20013;-84
2021/12/09 07:42:20;;;;;;;41.60;20.58;;;0.00;99.90;;;;;;6187463;23;20294;-83
2021/12/09 07:44:46;;;;;;;49.60;22.77;;;0.00;99.90;;;;;;6186853;23;20068;-83
2021/12/09 07:47:12;;;;;;;48.13;21.33;;;0.00;99.90;;;;;;6136616;23;20096;-83
2021/12/09 07:49:38;;;;;;;45.50;20.87;;;0.00;99.90;;;;;;6137850;23;20441;-83
2021/12/09 07:52:04;;;;;;;47.63;20.83;;;0.00;99.90;;;;;;6133448;23;20040;-83
2021/12/09 07:54:31;;;;;;;40.70;19.35;;;0.00;99.90;;;;;;6162568;23;20093;-83
2021/12/09 07:56:57;;;;;;;41.15;19.83;;;0.00;99.90;;;;;;6140186;23;20190;-83
2021/12/09 07:59:23;;;;;;;40.47;19.27;;;0.00;99.90;;;;;;6190938;23;20017;-83
2021/12/09 08:01:49;;;;;;;42.67;18.65;;;0.00;99.90;;;;;;6144349;23;20052;-83
2021/12/09 08:04:16;;;;;;;40.30;19.10;;;0.00;99.90;;;;;;6145817;23;20277;-83
2021/12/09 08:06:42;;;;;;;39.30;17.85;;;0.00;99.90;;;;;;6140463;23;20017;-83
2021/12/09 08:09:08;;;;;;;36.20;18.23;;;-0.10;99.90;;;;;;6193459;23;20226;-83
2021/12/09 08:11:39;;;;;;;37.28;18.23;;;0.00;99.90;;;;;;6167944;23;20452;-83
2021/12/09 08:14:06;;;;;;;44.40;18.77;;;0.00;99.90;;;;;;6145553;23;20354;-83
2021/12/09 08:16:37;;;;;;;40.42;18.35;;;0.00;99.90;;;;;;6144694;23;20013;-83
2021/12/09 08:19:04;;;;;;;35.92;17.90;;;0.10;99.90;;;;;;6169813;23;20442;-83
2021/12/09 08:21:33;;;;;;;38.85;17.88;;;0.10;99.90;;;;;;6168463;23;20027;-83
2021/12/09 08:23:59;;;;;;;38.40;17.23;;;0.10;99.90;;;;;;6194938;23;20027;-83
2021/12/09 08:26:26;;;;;;;39.88;17.23;;;0.10;99.90;;;;;;6143844;23;20028;-83
2021/12/09 08:28:52;;;;;;;38.50;16.98;;;0.20;99.90;;;;;;6191104;23;20021;-83
2021/12/09 08:31:17;;;;;;;39.83;16.60;;;0.20;99.90;;;;;;6192271;23;20009;-83
2021/12/09 08:33:43;;;;;;;38.60;17.30;;;0.20;99.90;;;;;;6192719;23;20017;-84
2021/12/09 08:36:10;;;;;;;31.23;15.70;;;0.30;99.90;;;;;;6170033;23;20025;-83
2021/12/09 08:38:35;;;;;;;37.03;16.13;;;0.30;99.90;;;;;;6144895;23;20240;-83
2021/12/09 08:41:03;;;;;;;38.83;17.20;;;0.50;99.90;;;;;;6194050;23;20341;-83
2021/12/09 08:43:29;;;;;;;37.50;16.65;;;0.50;99.90;;;;;;6193272;23;20524;-83
2021/12/09 08:45:55;;;;;;;31.67;15.55;;;0.60;99.90;;;;;;6144475;23;20521;-83
2021/12/09 08:48:23;;;;;;;34.42;15.73;;;0.70;99.90;;;;;;6193577;23;20020;-83
2021/12/09 08:50:49;;;;;;;36.17;14.95;;;0.70;99.90;;;;;;6143394;23;20017;-83
2021/12/09 08:53:19;;;;;;;35.05;16.33;;;0.70;99.90;;;;;;6193943;23;20077;-83
2021/12/09 08:55:45;;;;;;;35.60;15.60;;;0.70;99.90;;;;;;6192473;23;20021;-83
2021/12/09 08:58:13;;;;;;;29.88;14.90;;;0.80;99.90;;;;;;6165729;23;20013;-83
2021/12/09 09:00:40;;;;;;;35.85;15.27;;;0.80;99.90;;;;;;6188435;23;20009;-83
2021/12/09 09:03:06;;;;;;;30.50;13.82;;;0.80;99.90;;;;;;6188728;23;20028;-84
2021/12/09 09:05:34;;;;;;;40.72;14.15;;;0.80;99.90;;;;;;6137623;23;20108;-83
2021/12/09 09:08:01;;;;;;;31.50;14.45;;;0.80;99.90;;;;;;6185029;23;20096;-83
2021/12/09 09:10:29;;;;;;;33.53;13.48;;;0.80;99.90;;;;;;6186502;23;20059;-83
2021/12/09 09:12:55;;;;;;;33.78;13.77;;;0.90;99.90;;;;;;6185712;23;20017;-83
2021/12/09 09:15:23;;;;;;;29.63;13.60;;;0.90;99.90;;;;;;6159489;23;20525;-83
2021/12/09 09:17:49;;;;;;;29.30;14.05;;;0.90;99.90;;;;;;6188339;23;20009;-83
2021/12/09 09:20:17;;;;;;;36.65;16.30;;;0.90;99.90;;;;;;6167355;23;20394;-83
2021/12/09 09:22:43;;;;;;;36.75;18.10;;;1.00;99.90;;;;;;6143321;23;20020;-83
2021/12/09 09:25:17;;;;;;;33.38;16.40;;;0.90;99.90;;;;;;6143287;23;20017;-83
2021/12/09 09:27:48;;;;;;;37.78;15.85;;;1.00;99.90;;;;;;6191043;23;20126;-83
2021/12/09 09:30:18;;;;;;;37.22;15.38;;;1.00;99.90;;;;;;6161035;23;20012;-83
2021/12/09 09:32:49;;;;;;;32.00;14.65;;;1.00;99.90;;;;;;6185390;23;20071;-83
2021/12/09 09:35:16;;;;;;;31.73;14.25;;;1.10;99.90;;;;;;6185303;23;20040;-83
2021/12/09 09:37:42;;;;;;;25.42;13.80;;;1.20;99.90;;;;;;6185239;23;20055;-83
2021/12/09 09:40:14;;;;;;;31.47;13.60;;;1.10;99.90;;;;;;6135693;23;20096;-83
2021/12/09 09:45:09;;;;;;;24.25;12.18;;;1.20;99.90;;;;;;6187818;23;20035;-83
2021/12/09 09:47:36;;;;;;;27.48;12.75;;;1.20;99.90;;;;;;6162219;23;20021;-83
2021/12/09 09:50:04;;;;;;;22.58;12.48;;;1.30;99.90;;;;;;6187934;23;20027;-84
2021/12/09 09:52:30;;;;;;;27.98;12.32;;;1.30;99.90;;;;;;6190150;23;20017;-84
2021/12/09 09:54:56;;;;;;;27.33;12.40;;;1.40;99.90;;;;;;6141582;23;20015;-84
2021/12/09 09:57:23;;;;;;;29.92;12.93;;;1.40;99.90;;;;;;6190178;23;20422;-84
2021/12/09 09:59:49;;;;;;;27.05;13.80;;;1.50;99.90;;;;;;6189498;23;20064;-83
2021/12/09 10:02:14;;;;;;;25.23;12.70;;;1.60;99.90;;;;;;6140320;23;20347;-83
2021/12/09 10:07:09;;;;;;;28.17;12.82;;;1.70;99.90;;;;;;6161910;23;20265;-83
2021/12/09 10:09:36;;;;;;;24.35;12.00;;;1.80;99.90;;;;;;6163433;23;20450;-83
2021/12/09 10:12:02;;;;;;;23.00;12.02;;;1.90;99.90;;;;;;6188452;23;20044;-83
2021/12/09 10:14:32;;;;;;;23.50;11.40;;;1.90;99.90;;;;;;6141953;23;20009;-83
2021/12/09 10:17:12;;;;;;;27.95;13.38;;;2.00;99.90;;;;;;6187760;23;20009;-83
2021/12/09 10:19:47;;;;;;;31.63;12.63;;;2.00;99.90;;;;;;6164451;23;20334;-83
2021/12/09 10:22:24;;;;;;;22.58;12.80;;;2.10;99.90;;;;;;6166187;23;20040;-83
2021/12/09 10:24:53;;;;;;;29.33;13.55;;;2.10;99.90;;;;;;6165772;23;20391;-83
2021/12/09 10:27:30;;;;;;;27.95;13.05;;;2.10;99.90;;;;;;6190379;23;20013;-83
2021/12/09 10:30:12;;;;;;;24.98;12.55;;;2.20;99.90;;;;;;6189786;23;20021;-83
2021/12/09 10:32:39;;;;;;;27.77;11.88;;;2.20;99.90;;;;;;6166363;23;20041;-83
2021/12/09 10:35:08;;;;;;;31.02;12.98;;;2.30;99.90;;;;;;6141370;23;20490;-83
2021/12/09 10:37:35;;;;;;;31.33;13.65;;;2.30;99.90;;;;;;6191075;23;20586;-83
2021/12/09 10:40:07;;;;;;;30.73;14.50;;;2.40;99.90;;;;;;6141037;23;20044;-83
2021/12/09 10:42:48;;;;;;;40.72;15.50;;;2.40;99.90;;;;;;6165002;23;20021;-83
2021/12/09 10:45:20;;;;;;;33.78;16.33;;;2.50;99.90;;;;;;6191114;23;20013;-83
2021/12/09 10:48:00;;;;;;;37.80;16.67;;;2.50;99.90;;;;;;6166067;23;20136;-83
2021/12/09 10:55:54;;;;;;;42.63;18.27;;;2.70;99.90;;;;;;6187167;23;20087;-83
2021/12/09 10:58:44;;;;;;;39.75;16.95;;;2.80;99.90;;;;;;6160453;23;20494;-83
2021/12/09 11:01:19;;;;;;;43.25;17.08;;;2.80;99.90;;;;;;6184529;23;20024;-83
2021/12/09 11:03:50;;;;;;;40.53;17.73;;;2.90;99.90;;;;;;6158750;23;20087;-83
2021/12/09 11:06:17;;;;;;;51.50;18.40;;;2.90;99.90;;;;;;6188518;23;20024;-82
2021/12/09 11:08:44;;;;;;;38.60;17.25;;;2.90;99.90;;;;;;6187665;23;20021;-82
2021/12/09 11:11:39;;;;;;;41.90;17.70;;;2.90;99.90;;;;;;6188250;23;20362;-82
2021/12/09 11:14:21;;;;;;;40.92;18.63;;;3.00;99.90;;;;;;6164524;23;20013;-82
2021/12/09 11:17:02;;;;;;;46.15;19.52;;;3.10;99.90;;;;;;6187893;23;20013;-83
2021/12/09 11:19:38;;;;;;;51.95;20.08;;;3.10;99.90;;;;;;6185617;23;20020;-83
2021/12/09 11:22:07;;;;;;;50.65;20.02;;;3.10;99.90;;;;;;6164321;23;20017;-83
2021/12/09 11:24:39;;;;;;;43.03;18.83;;;3.20;99.90;;;;;;6186108;23;20009;-83
2021/12/09 11:27:09;;;;;;;39.72;18.15;;;3.20;99.90;;;;;;6185493;23;20016;-83
2021/12/09 11:30:07;;;;;;;44.33;19.23;;;3.20;99.90;;;;;;6136131;23;20028;-83
2021/12/09 11:32:50;;;;;;;44.42;18.85;;;3.30;99.90;;;;;;6186563;23;20013;-83
2021/12/09 11:35:28;;;;;;;42.63;19.67;;;3.30;99.90;;;;;;6163458;23;20023;-83
2021/12/09 11:38:23;;;;;;;37.67;18.67;;;3.30;99.90;;;;;;6163507;23;20019;-83
2021/12/09 11:40:50;;;;;;;37.10;19.30;;;3.40;99.90;;;;;;6187667;23;20021;-83
2021/12/09 11:43:26;;;;;;;38.35;19.67;;;3.40;99.90;;;;;;6163970;23;20020;-83
2021/12/09 11:45:54;;;;;;;36.60;18.80;;;3.40;99.90;;;;;;6161400;23;20021;-82
2021/12/09 11:48:20;;;;;;;38.85;17.77;;;3.40;99.90;;;;;;6185947;23;20024;-82
2021/12/09 11:50:52;;;;;;;43.60;18.80;;;3.50;99.90;;;;;;6135588;23;20021;-82
2021/12/09 11:53:22;;;;;;;37.78;19.38;;;3.40;99.90;;;;;;6187309;23;20017;-82
2021/12/09 11:56:07;;;;;;;40.90;18.80;;;3.50;99.90;;;;;;6187570;23;20020;-83
2021/12/09 11:58:40;;;;;;;42.17;19.55;;;3.50;99.90;;;;;;6162895;23;20087;-83
2021/12/09 12:07:17;;;;;;;44.42;19.48;;;3.50;99.90;;;;;;6186956;23;20100;-83
2021/12/09 12:13:05;;;;;;;40.50;18.55;;;3.50;99.90;;;;;;6189871;23;20027;-83
2021/12/09 12:26:43;;;;;;;45.90;20.58;;;3.50;99.90;;;;;;6189032;23;20013;-84
2021/12/09 12:38:11;;;;;;;43.45;20.27;;;3.50;99.90;;;;;;6170513;23;20028;-84
2021/12/09 12:41:01;;;;;;;41.38;20.20;;;3.50;99.90;;;;;;6191676;23;20024;-84
2021/12/09 12:43:40;;;;;;;39.55;19.63;;;3.60;99.90;;;;;;6165122;23;20685;-84
2021/12/09 12:51:09;;;;;;;41.15;20.20;;;3.60;99.90;;;;;;6188665;23;20074;-84
2021/12/09 12:53:41;;;;;;;40.58;19.02;;;3.60;99.90;;;;;;6187501;23;20840;-84
2021/12/09 12:56:24;;;;;;;43.75;20.23;;;3.70;99.90;;;;;;6187220;23;20028;-84
2021/12/09 12:59:06;;;;;;;44.28;20.33;;;3.70;99.90;;;;;;6188256;23;20017;-84
2021/12/09 13:01:47;;;;;;;41.13;19.73;;;3.70;99.90;;;;;;6162586;23;20350;-84
2021/12/09 13:05:04;;;;;;;40.35;19.25;;;3.70;99.90;;;;;;6162603;23;20017;-84
2021/12/09 13:08:01;;;;;;;38.50;19.63;;;3.70;99.90;;;;;;6187225;23;20087;-84
2021/12/09 13:10:45;;;;;;;36.72;18.48;;;3.70;99.90;;;;;;6189643;23;20458;-84
2021/12/09 13:13:30;;;;;;;41.05;20.10;;;3.70;99.90;;;;;;6162881;23;20017;-84
2021/12/09 13:17:01;;;;;;;44.78;20.40;;;3.70;99.90;;;;;;6162190;23;20498;-84
2021/12/09 13:19:08;;;;;;;49.80;22.48;;;3.70;99.90;;;;;;6173308;23;20027;-84
2021/12/09 13:21:42;;;;;;;43.10;20.50;;;3.70;99.90;;;;;;6192371;23;20017;-84
2021/12/09 13:24:33;;;;;;;41.60;20.00;;;3.70;99.90;;;;;;6188198;23;20021;-84
2021/12/09 13:27:14;;;;;;;44.85;20.45;;;3.70;99.90;;;;;;6189905;23;20013;-83
2021/12/09 13:32:51;;;;;;;39.22;20.02;;;3.70;99.90;;;;;;6185564;23;20021;-84
2021/12/09 13:35:29;;;;;;;40.33;20.25;;;3.70;99.90;;;;;;6159530;23;20061;-84